createdAt,value
2023-07-09T00:01:58.367Z,98766.66
2023-07-09T00:04:24.700Z,98760.19
2023-07-09T00:06:50.908Z,98759.34
2023-07-09T00:09:17.092Z,98761.25
2023-07-09T00:11:43.255Z,98756.63
2023-07-09T00:14:09.573Z,98753.13
2023-07-09T00:16:35.773Z,98763.94
2023-07-09T00:19:01.906Z,98763.13
2023-07-09T00:21:28.653Z,98765.03
2023-07-09T00:23:54.853Z,98767.72
2023-07-09T00:26:20.991Z,98778.56
2023-07-09T00:28:47.158Z,98773.16
2023-07-09T00:31:13.346Z,98766.06
2023-07-09T00:33:39.515Z,98766.88
2023-07-09T00:36:05.812Z,98769.59
2023-07-09T00:38:32.052Z,98763.38
2023-07-09T00:40:58.207Z,98768.78
2023-07-09T00:43:24.926Z,98758.78
2023-07-09T00:45:51.260Z,98756.34
2023-07-09T00:48:17.411Z,98760.66
2023-07-09T00:50:43.579Z,98751.72
2023-07-09T00:53:09.718Z,98750.91
2023-07-09T00:55:35.858Z,98755.53
2023-07-09T00:58:02.038Z,98759.03
2023-07-09T01:00:28.174Z,98757.16
2023-07-09T01:02:54.365Z,98760.94
2023-07-09T01:05:20.666Z,98763.63
2023-07-09T01:07:46.979Z,98759.03
2023-07-09T01:10:13.143Z,98757.38
2023-07-09T01:12:39.309Z,98758.22
2023-07-09T01:15:05.471Z,98758.22
2023-07-09T01:17:31.661Z,98762.78
2023-07-09T01:19:57.883Z,98760.94
2023-07-09T01:22:24.030Z,98763.06
2023-07-09T01:24:50.173Z,98764.69
2023-07-09T01:27:16.430Z,98763.88
2023-07-09T01:29:44.143Z,98763.06
2023-07-09T01:32:12.108Z,98768.19
2023-07-09T01:34:38.280Z,98763.06
2023-07-09T01:37:04.547Z,98760.34
2023-07-09T01:39:30.735Z,98767.38
2023-07-09T01:41:56.964Z,98756.84
2023-07-09T01:44:23.092Z,98760.34
2023-07-09T01:46:49.335Z,98758.69
2023-07-09T01:49:15.602Z,98759.53
2023-07-09T01:51:41.883Z,98756.84
2023-07-09T01:54:08.040Z,98766.81
2023-07-09T01:56:34.238Z,98764.97
2023-07-09T01:59:00.397Z,98767.66
2023-07-09T02:01:26.628Z,98772.22
2023-07-09T02:03:52.891Z,98754.38
2023-07-09T02:06:19.166Z,98760.59
2023-07-09T02:08:45.337Z,98762.47
2023-07-09T02:11:11.527Z,98755.19
2023-07-09T02:13:37.877Z,98757.06
2023-07-09T02:16:04.252Z,98762.47
2023-07-09T02:18:30.695Z,98752.72
2023-07-09T02:20:56.873Z,98758.97
2023-07-09T02:23:23.014Z,98746.25
2023-07-09T02:25:49.186Z,98750.00
2023-07-09T02:28:15.336Z,98748.97
2023-07-09T02:30:41.576Z,98750.00
2023-07-09T02:33:07.847Z,98759.78
2023-07-09T02:35:34.051Z,98767.09
2023-07-09T02:38:00.334Z,98766.25
2023-07-09T02:40:26.514Z,98768.94
2023-07-09T02:42:52.659Z,98771.66
2023-07-09T02:45:18.799Z,98774.34
2023-07-09T02:47:45.274Z,98770.00
2023-07-09T02:50:11.633Z,98777.06
2023-07-09T02:52:37.790Z,98776.25
2023-07-09T02:55:04.047Z,98778.97
2023-07-09T02:57:30.382Z,98767.28
2023-07-09T02:59:56.526Z,98769.19
2023-07-09T03:02:22.746Z,98763.78
2023-07-09T03:04:49.054Z,98775.41
2023-07-09T03:07:15.249Z,98775.41
2023-07-09T03:09:41.408Z,98773.78
2023-07-09T03:12:07.564Z,98778.34
2023-07-09T03:14:33.718Z,98777.53
2023-07-09T03:17:00.084Z,98782.94
2023-07-09T03:19:26.334Z,98788.34
2023-07-09T03:21:52.534Z,98783.75
2023-07-09T03:24:18.690Z,98797.28
2023-07-09T03:26:44.832Z,98791.88
2023-07-09T03:29:10.977Z,98792.94
2023-07-09T03:31:37.323Z,98804.59
2023-07-09T03:34:03.513Z,98804.59
2023-07-09T03:36:29.649Z,98798.38
2023-07-09T03:38:56.073Z,98797.56
2023-07-09T03:41:22.224Z,98809.19
2023-07-09T03:43:48.374Z,98800.25
2023-07-09T03:46:14.538Z,98802.97
2023-07-09T03:48:40.854Z,98804.84
2023-07-09T03:51:07.100Z,98809.44
2023-07-09T03:53:33.842Z,98812.13
2023-07-09T03:56:00.043Z,98804.00
2023-07-09T03:58:26.297Z,98805.09
2023-07-09T04:00:52.699Z,98805.91
2023-07-09T04:03:18.843Z,98805.09
2023-07-09T04:05:44.988Z,98809.69
2023-07-09T04:08:11.174Z,98809.69
2023-07-09T04:10:37.308Z,98812.41
2023-07-09T04:13:03.442Z,98815.09
2023-07-09T04:15:29.589Z,98809.69
2023-07-09T04:17:55.793Z,98809.69
2023-07-09T04:20:22.017Z,98808.03
2023-07-09T04:22:48.289Z,98808.03
2023-07-09T04:25:14.422Z,98812.41
2023-07-09T04:27:40.625Z,98808.84
2023-07-09T04:30:06.809Z,98814.25
2023-07-09T04:32:32.989Z,98820.50
2023-07-09T04:34:59.183Z,98815.09
2023-07-09T04:37:25.404Z,98817.81
2023-07-09T04:39:51.562Z,98814.53
2023-07-09T04:42:17.701Z,98817.22
2023-07-09T04:44:44.036Z,98815.34
2023-07-09T04:47:10.179Z,98819.94
2023-07-09T04:49:36.334Z,98820.97
2023-07-09T04:52:02.619Z,98815.56
2023-07-09T04:54:28.821Z,98815.56
2023-07-09T04:56:55.026Z,98821.81
2023-07-09T04:59:21.270Z,98819.94
2023-07-09T05:01:47.541Z,98818.28
2023-07-09T05:04:13.787Z,98820.97
2023-07-09T05:06:40.103Z,98826.66
2023-07-09T05:09:06.246Z,98820.97
2023-07-09T05:11:32.426Z,98831.81
2023-07-09T05:13:58.708Z,98828.28
2023-07-09T05:16:25.016Z,98831.00
2023-07-09T05:18:51.239Z,98832.88
2023-07-09T05:21:17.405Z,98822.06
2023-07-09T05:23:43.565Z,98824.75
2023-07-09T05:26:09.709Z,98824.75
2023-07-09T05:28:36.042Z,98824.75
2023-07-09T05:31:02.268Z,98827.47
2023-07-09T05:33:28.509Z,98823.94
2023-07-09T05:35:54.685Z,98822.28
2023-07-09T05:38:20.813Z,98830.19
2023-07-09T05:40:46.952Z,98831.25
2023-07-09T05:43:13.119Z,98828.56
2023-07-09T05:45:39.255Z,98835.59
2023-07-09T05:48:05.441Z,98837.47
2023-07-09T05:50:31.790Z,98834.78
2023-07-09T05:52:58.001Z,98840.19
2023-07-09T05:55:24.252Z,98833.13
2023-07-09T05:57:50.488Z,98833.97
2023-07-09T06:00:16.726Z,98842.88
2023-07-09T06:02:42.924Z,98839.38
2023-07-09T06:05:09.682Z,98843.94
2023-07-09T06:07:35.863Z,98843.94
2023-07-09T06:10:02.043Z,98840.41
2023-07-09T06:12:28.422Z,98840.19
2023-07-09T06:14:54.621Z,98838.53
2023-07-09T06:17:20.774Z,98850.19
2023-07-09T06:19:47.001Z,98838.53
2023-07-09T06:22:13.191Z,98839.38
2023-07-09T06:24:39.434Z,98848.28
2023-07-09T06:27:05.611Z,98839.38
2023-07-09T06:29:31.795Z,98837.47
2023-07-09T06:31:57.954Z,98830.19
2023-07-09T06:34:24.294Z,98841.00
2023-07-09T06:36:50.418Z,98845.59
2023-07-09T06:39:16.551Z,98837.47
2023-07-09T06:41:43.209Z,98842.88
2023-07-09T06:44:09.358Z,98852.91
2023-07-09T06:46:35.502Z,98858.31
2023-07-09T06:49:01.673Z,98851.81
2023-07-09T06:51:27.818Z,98851.00
2023-07-09T06:53:54.023Z,98851.81
2023-07-09T06:56:20.346Z,98853.44
2023-07-09T06:58:46.487Z,98851.81
2023-07-09T07:01:12.627Z,98843.69
2023-07-09T07:03:38.864Z,98849.94
2023-07-09T07:06:05.292Z,98849.69
2023-07-09T07:08:31.755Z,98852.41
2023-07-09T07:10:57.924Z,98841.81
2023-07-09T07:13:24.163Z,98849.94
2023-07-09T07:15:50.365Z,98853.22
2023-07-09T07:18:16.551Z,98855.09
2023-07-09T07:20:42.697Z,98852.41
2023-07-09T07:23:08.858Z,98849.69
2023-07-09T07:25:35.028Z,98846.97
2023-07-09T07:28:01.187Z,98848.63
2023-07-09T07:30:27.381Z,98845.09
2023-07-09T07:32:53.623Z,98840.50
2023-07-09T07:35:19.813Z,98838.59
2023-07-09T07:37:46.138Z,98842.16
2023-07-09T07:40:12.306Z,98849.19
2023-07-09T07:42:38.518Z,98848.38
2023-07-09T07:45:04.662Z,98842.16
2023-07-09T07:47:31.359Z,98853.78
2023-07-09T07:49:57.538Z,98849.19
2023-07-09T07:52:23.679Z,98851.66
2023-07-09T07:54:49.859Z,98850.84
2023-07-09T07:57:16.026Z,98848.97
2023-07-09T07:59:42.399Z,98842.47
2023-07-09T08:02:08.596Z,98845.19
2023-07-09T08:04:34.776Z,98851.41
2023-07-09T08:07:00.927Z,98849.53
2023-07-09T08:09:28.081Z,98848.47
2023-07-09T08:11:54.217Z,98854.72
2023-07-09T08:14:20.408Z,98849.31
2023-07-09T08:16:46.661Z,98850.13
2023-07-09T08:19:12.865Z,98836.59
2023-07-09T08:21:39.073Z,98840.94
2023-07-09T08:24:05.259Z,98842.56
2023-07-09T08:26:31.401Z,98842.56
2023-07-09T08:28:57.747Z,98838.00
2023-07-09T08:31:23.955Z,98846.13
2023-07-09T08:33:50.150Z,98843.97
2023-07-09T08:36:16.335Z,98836.94
2023-07-09T08:38:42.521Z,98838.56
2023-07-09T08:41:08.673Z,98835.03
2023-07-09T08:43:35.028Z,98844.81
2023-07-09T08:46:01.221Z,98841.03
2023-07-09T08:48:27.399Z,98831.03
2023-07-09T08:50:53.525Z,98829.13
2023-07-09T08:53:19.704Z,98827.25
2023-07-09T08:55:45.848Z,98829.97
2023-07-09T08:58:12.006Z,98826.19
2023-07-09T09:00:38.204Z,98834.06
2023-07-09T09:03:04.444Z,98825.13
2023-07-09T09:05:30.769Z,98830.28
2023-07-09T09:07:56.969Z,98821.13
2023-07-09T09:10:23.127Z,98827.34
2023-07-09T09:12:49.326Z,98828.16
2023-07-09T09:15:16.074Z,98818.13
2023-07-09T09:17:42.265Z,98827.06
2023-07-09T09:20:08.431Z,98826.03
2023-07-09T09:22:34.586Z,98823.31
2023-07-09T09:25:00.757Z,98813.31
2023-07-09T09:27:27.118Z,98830.13
2023-07-09T09:29:53.301Z,98812.00
2023-07-09T09:32:19.445Z,98812.81
2023-07-09T09:34:45.589Z,98811.75
2023-07-09T09:37:11.846Z,98816.09
2023-07-09T09:39:38.040Z,98814.47
2023-07-09T09:42:04.253Z,98811.47
2023-07-09T09:44:30.990Z,98813.13
2023-07-09T09:46:58.614Z,98814.75
2023-07-09T09:49:26.736Z,98814.53
2023-07-09T09:51:53.396Z,98806.41
2023-07-09T09:54:19.525Z,98813.22
2023-07-09T09:56:45.784Z,98813.22
2023-07-09T09:59:11.942Z,98805.09
2023-07-09T10:01:38.147Z,98820.25
2023-07-09T10:04:04.309Z,98811.88
2023-07-09T10:06:30.457Z,98811.88
2023-07-09T10:08:56.647Z,98818.13
2023-07-09T10:11:22.984Z,98806.25
2023-07-09T10:13:49.245Z,98807.06
2023-07-09T10:16:15.406Z,98811.38
2023-07-09T10:18:41.689Z,98804.09
2023-07-09T10:21:07.951Z,98799.50
2023-07-09T10:23:34.143Z,98812.78
2023-07-09T10:26:00.287Z,98808.44
2023-07-09T10:28:26.477Z,98805.50
2023-07-09T10:30:52.644Z,98810.91
2023-07-09T10:33:18.970Z,98800.63
2023-07-09T10:35:45.178Z,98795.22
2023-07-09T10:38:11.350Z,98798.50
2023-07-09T10:40:37.509Z,98794.72
2023-07-09T10:43:03.673Z,98792.03
2023-07-09T10:45:29.836Z,98791.75
2023-07-09T10:47:56.019Z,98788.81
2023-07-09T10:50:22.228Z,98785.88
2023-07-09T10:52:48.379Z,98785.88
2023-07-09T10:55:14.536Z,98782.06
2023-07-09T10:57:40.767Z,98782.88
2023-07-09T11:00:06.917Z,98777.22
2023-07-09T11:02:33.086Z,98777.00
2023-07-09T11:04:59.300Z,98777.00
2023-07-09T11:07:25.458Z,98782.94
2023-07-09T11:09:51.626Z,98783.78
2023-07-09T11:12:17.870Z,98781.63
2023-07-09T11:14:44.072Z,98768.94
2023-07-09T11:17:10.313Z,98768.66
2023-07-09T11:19:36.458Z,98766.78
2023-07-09T11:22:02.618Z,98780.06
2023-07-09T11:24:28.890Z,98777.13
2023-07-09T11:26:55.076Z,98776.03
2023-07-09T11:29:21.222Z,98775.22
2023-07-09T11:31:47.477Z,98770.63
2023-07-09T11:34:13.694Z,98767.66
2023-07-09T11:36:39.873Z,98758.47
2023-07-09T11:39:06.045Z,98768.25
2023-07-09T11:41:32.292Z,98767.97
2023-07-09T11:43:58.432Z,98763.41
2023-07-09T11:46:24.570Z,98766.63
2023-07-09T11:48:50.763Z,98757.69
2023-07-09T11:51:16.893Z,98745.81
2023-07-09T11:53:43.065Z,98746.38
2023-07-09T11:56:09.235Z,98746.38
2023-07-09T11:58:35.382Z,98736.13
2023-07-09T12:01:01.514Z,98732.59
2023-07-09T12:03:27.745Z,98726.13
2023-07-09T12:05:53.920Z,98730.47
2023-07-09T12:08:20.078Z,98725.84
2023-07-09T12:10:46.354Z,98721.00
2023-07-09T12:13:12.559Z,98720.75
2023-07-09T12:15:38.716Z,98715.06
2023-07-09T12:18:04.980Z,98719.44
2023-07-09T12:20:31.142Z,98712.13
2023-07-09T12:22:57.284Z,98706.47
2023-07-09T12:25:23.901Z,98710.78
2023-07-09T12:27:50.067Z,98709.16
2023-07-09T12:30:16.251Z,98710.53
2023-07-09T12:32:42.415Z,98705.94
2023-07-09T12:35:08.551Z,98710.28
2023-07-09T12:37:34.744Z,98701.66
2023-07-09T12:40:00.923Z,98698.09
2023-07-09T12:42:27.103Z,98700.56
2023-07-09T12:44:53.245Z,98703.84
2023-07-09T12:47:19.397Z,98696.53
2023-07-09T12:49:45.557Z,98694.63
2023-07-09T12:52:11.744Z,98691.69
2023-07-09T12:54:37.908Z,98696.00
2023-07-09T12:57:04.075Z,98694.13
2023-07-09T12:59:30.248Z,98689.25
2023-07-09T13:01:57.037Z,98679.25
2023-07-09T13:04:25.074Z,98684.41
2023-07-09T13:06:52.078Z,98676.84
2023-07-09T13:09:18.247Z,98670.38
2023-07-09T13:11:44.377Z,98673.88
2023-07-09T13:14:10.657Z,98669.03
2023-07-09T13:16:36.991Z,98669.03
2023-07-09T13:19:03.173Z,98668.75
2023-07-09T13:21:29.319Z,98666.84
2023-07-09T13:23:55.529Z,98665.78
2023-07-09T13:26:21.722Z,98672.03
2023-07-09T13:28:47.860Z,98671.78
2023-07-09T13:31:14.043Z,98668.78
2023-07-09T13:33:40.221Z,98670.44
2023-07-09T13:36:06.359Z,98673.97
2023-07-09T13:38:32.499Z,98668.28
2023-07-09T13:40:58.664Z,98669.09
2023-07-09T13:43:24.797Z,98671.53
2023-07-09T13:45:50.950Z,98666.97
2023-07-09T13:48:17.237Z,98656.94
2023-07-09T13:50:43.511Z,98652.06
2023-07-09T13:53:09.698Z,98657.50
2023-07-09T13:55:35.843Z,98655.59
2023-07-09T13:58:01.971Z,98660.78
2023-07-09T14:00:28.131Z,98655.88
2023-07-09T14:02:54.407Z,98650.47
2023-07-09T14:05:20.648Z,98647.75
2023-07-09T14:07:46.919Z,98639.13
2023-07-09T14:10:13.133Z,98628.00
2023-07-09T14:12:39.324Z,98628.00
2023-07-09T14:15:05.499Z,98620.69
2023-07-09T14:17:31.863Z,98629.66
2023-07-09T14:19:58.147Z,98616.91
2023-07-09T14:22:24.378Z,98619.38
2023-07-09T14:24:50.580Z,98621.78
2023-07-09T14:27:16.725Z,98622.63
2023-07-09T14:29:45.028Z,98614.22
2023-07-09T14:32:11.823Z,98620.44
2023-07-09T14:34:37.972Z,98617.50
2023-07-09T14:37:04.176Z,98619.13
2023-07-09T14:39:30.354Z,98619.13
2023-07-09T14:41:56.513Z,98619.13
2023-07-09T14:44:22.710Z,98623.47
2023-07-09T14:46:48.963Z,98621.59
2023-07-09T14:49:15.184Z,98630.56
2023-07-09T14:51:41.358Z,98621.59
2023-07-09T14:54:07.515Z,98620.25
2023-07-09T14:56:33.694Z,98612.13
2023-07-09T14:58:59.868Z,98611.06
2023-07-09T15:01:26.069Z,98614.59
2023-07-09T15:03:52.523Z,98619.22
2023-07-09T15:06:18.717Z,98628.16
2023-07-09T15:08:44.872Z,98636.84
2023-07-09T15:11:11.024Z,98643.09
2023-07-09T15:13:37.390Z,98643.09
2023-07-09T15:16:03.615Z,98661.78
2023-07-09T15:18:29.813Z,98660.97
2023-07-09T15:20:55.998Z,98671.56
2023-07-09T15:23:22.126Z,98684.31
2023-07-09T15:25:48.280Z,98708.72
2023-07-09T15:28:14.431Z,98749.97
2023-07-09T15:30:40.578Z,98751.03
2023-07-09T15:33:09.596Z,98771.69
2023-07-09T15:35:37.002Z,98815.38
2023-07-09T15:38:03.165Z,98817.00
2023-07-09T15:40:29.325Z,98825.13
2023-07-09T15:42:55.500Z,98827.59
2023-07-09T15:45:21.653Z,98819.44
2023-07-09T15:47:47.839Z,98812.97
2023-07-09T15:50:17.127Z,98818.41
2023-07-09T15:52:43.327Z,98816.75
2023-07-09T15:55:09.492Z,98815.69
2023-07-09T15:57:42.175Z,98810.50
2023-07-09T16:00:09.040Z,98810.50
2023-07-09T16:02:35.356Z,98822.97
2023-07-09T16:05:01.628Z,98810.75
2023-07-09T16:07:27.777Z,98818.88
2023-07-09T16:09:53.961Z,98815.13
2023-07-09T16:12:20.686Z,98845.78
2023-07-09T16:14:46.837Z,98852.00
2023-07-09T16:17:12.969Z,98879.13
2023-07-09T16:19:39.134Z,98894.34
2023-07-09T16:22:08.434Z,98873.72
2023-07-09T16:24:34.610Z,98882.09
2023-07-09T16:27:00.815Z,98871.22
2023-07-09T16:34:54.753Z,98877.75
2023-07-09T16:37:26.679Z,98879.66
2023-07-09T16:39:52.857Z,98897.81
2023-07-09T16:42:19.023Z,98896.97
2023-07-09T16:44:45.176Z,98910.53
2023-07-09T16:47:11.330Z,98881.56
2023-07-09T16:49:37.524Z,98913.25
2023-07-09T16:52:03.675Z,98902.41
2023-07-09T16:54:29.827Z,98875.56
2023-07-09T16:56:56.005Z,98854.91
2023-07-09T16:59:24.114Z,98848.69
2023-07-09T17:01:50.262Z,98848.69
2023-07-09T17:04:16.423Z,98864.13
2023-07-09T17:06:42.563Z,98871.19
2023-07-09T17:09:08.710Z,98871.19
2023-07-09T17:11:34.874Z,98887.75
2023-07-09T17:14:01.056Z,98917.28
2023-07-09T17:16:27.272Z,98920.84
2023-07-09T17:18:53.455Z,98935.47
2023-07-09T17:21:19.621Z,98909.44
2023-07-09T17:23:48.539Z,98885.28
2023-07-09T17:26:14.727Z,98853.53
2023-07-09T17:28:40.865Z,98808.75
2023-07-09T17:31:07.006Z,98794.38
2023-07-09T17:33:33.204Z,98770.22
2023-07-09T17:35:59.352Z,98752.91
2023-07-09T17:38:25.516Z,98750.19
2023-07-09T17:40:51.674Z,98736.63
2023-07-09T17:43:17.847Z,98731.19
2023-07-09T17:45:44.005Z,98713.28
2023-07-09T17:48:10.206Z,98701.63
2023-07-09T17:50:36.382Z,98698.91
2023-07-09T17:53:02.580Z,98700.81
2023-07-09T17:55:28.789Z,98694.56
2023-07-09T17:57:54.958Z,98679.13
2023-07-09T18:00:21.168Z,98679.94
2023-07-09T18:02:47.381Z,98669.31
2023-07-09T18:05:13.544Z,98659.31
2023-07-09T18:07:39.688Z,98643.88
2023-07-09T18:10:07.287Z,98647.38
2023-07-09T18:12:34.085Z,98648.47
2023-07-09T18:15:00.222Z,98646.56
2023-07-09T18:17:26.425Z,98640.34
2023-07-09T18:19:52.607Z,98638.69
2023-07-09T18:22:18.790Z,98636.78
2023-07-09T18:24:44.999Z,98635.16
2023-07-09T18:27:12.170Z,98639.75
2023-07-09T18:29:38.846Z,98631.63
2023-07-09T18:32:05.009Z,98646.22
2023-07-09T18:34:31.216Z,98644.38
2023-07-09T18:36:57.363Z,98643.78
2023-07-09T18:39:23.510Z,98648.94
2023-07-09T18:41:49.668Z,98644.59
2023-07-09T18:44:15.898Z,98651.13
2023-07-09T18:46:42.199Z,98666.31
2023-07-09T18:49:08.382Z,98673.63
2023-07-09T18:51:34.540Z,98671.72
2023-07-09T18:54:00.715Z,98673.63
2023-07-09T18:56:26.857Z,98685.28
2023-07-09T18:58:52.995Z,98681.75
2023-07-09T19:01:19.282Z,98686.38
2023-07-09T19:03:45.728Z,98686.38
2023-07-09T19:06:11.931Z,98683.66
2023-07-09T19:08:38.104Z,98687.44
2023-07-09T19:11:04.277Z,98690.13
2023-07-09T19:13:30.546Z,98690.13
2023-07-09T19:15:56.819Z,98694.75
2023-07-09T19:18:22.975Z,98699.38
2023-07-09T19:20:49.129Z,98695.00
2023-07-09T19:23:15.312Z,98703.13
2023-07-09T19:25:42.673Z,98695.00
2023-07-09T19:28:10.944Z,98696.91
2023-07-09T19:30:37.119Z,98696.09
2023-07-09T19:33:03.316Z,98696.91
2023-07-09T19:35:29.509Z,98701.50
2023-07-09T19:37:59.221Z,98706.94
2023-07-09T19:40:25.374Z,98695.28
2023-07-09T19:42:51.553Z,98707.19
2023-07-09T19:45:17.722Z,98710.72
2023-07-09T19:47:43.953Z,98713.41
2023-07-09T19:50:10.131Z,98714.50
2023-07-09T19:52:36.308Z,98720.75
2023-07-09T19:55:02.445Z,98719.94
2023-07-09T19:57:28.582Z,98719.13
2023-07-09T19:59:54.734Z,98719.94
2023-07-09T20:02:20.980Z,98725.34
2023-07-09T20:04:47.162Z,98723.72
2023-07-09T20:07:13.328Z,98732.69
2023-07-09T20:09:39.467Z,98742.72
2023-07-09T20:12:05.606Z,98743.53
2023-07-09T20:14:31.769Z,98753.81
2023-07-09T20:16:57.923Z,98765.47
2023-07-09T20:19:24.093Z,98756.50
2023-07-09T20:21:50.294Z,98770.06
2023-07-09T20:24:16.454Z,98772.78
2023-07-09T20:26:42.604Z,98783.63
2023-07-09T20:29:08.759Z,98785.53
2023-07-09T20:31:34.998Z,98780.09
2023-07-09T20:34:01.265Z,98776.56
2023-07-09T20:36:29.235Z,98773.88
2023-07-09T20:38:55.373Z,98766.78
2023-07-09T20:41:21.513Z,98774.09
2023-07-09T20:43:47.671Z,98777.63
2023-07-09T20:46:13.819Z,98782.25
2023-07-09T20:48:39.959Z,98776.81
2023-07-09T20:51:06.213Z,98786.00
2023-07-09T20:53:32.358Z,98779.53
2023-07-09T20:55:58.521Z,98782.25
2023-07-09T20:58:24.732Z,98785.19
2023-07-09T21:00:50.982Z,98782.50
2023-07-09T21:03:17.283Z,98785.19
2023-07-09T21:05:43.505Z,98781.69
2023-07-09T21:08:11.712Z,98782.50
2023-07-09T21:10:37.877Z,98781.91
2023-07-09T21:13:07.102Z,98789.81
2023-07-09T21:15:33.239Z,98789.00
2023-07-09T21:17:59.480Z,98799.03
2023-07-09T21:20:25.653Z,98799.03
2023-07-09T21:22:51.777Z,98800.91
2023-07-09T21:25:17.913Z,98786.53
2023-07-09T21:27:44.124Z,98780.28
2023-07-09T21:30:10.326Z,98789.25
2023-07-09T21:32:36.558Z,98777.59
2023-07-09T21:35:02.767Z,98768.63
2023-07-09T21:37:28.917Z,98767.81
2023-07-09T21:39:55.085Z,98781.38
2023-07-09T21:42:21.268Z,98788.66
2023-07-09T21:44:47.414Z,98792.22
2023-07-09T21:47:13.581Z,98789.75
2023-07-09T21:49:39.767Z,98797.91
2023-07-09T21:52:05.935Z,98795.19
2023-07-09T21:57:01.190Z,98806.28
2023-07-09T21:59:27.331Z,98800.03
2023-07-09T22:01:53.517Z,98800.03
2023-07-09T22:04:19.760Z,98801.66
2023-07-09T22:06:45.904Z,98798.13
2023-07-09T22:09:12.091Z,98797.31
2023-07-09T22:11:38.249Z,98793.81
2023-07-09T22:14:04.451Z,98811.97
2023-07-09T22:16:30.715Z,98803.84
2023-07-09T22:18:56.930Z,98807.59
2023-07-09T22:21:23.116Z,98811.13
2023-07-09T22:23:49.266Z,98817.38
2023-07-09T22:26:15.413Z,98821.97
2023-07-09T22:28:41.564Z,98820.09
2023-07-09T22:31:07.760Z,98822.25
2023-07-09T22:33:34.026Z,98822.25
2023-07-09T22:36:00.192Z,98827.66
2023-07-09T22:38:26.349Z,98818.72
2023-07-09T22:40:52.542Z,98820.59
2023-07-09T22:43:18.693Z,98819.78
2023-07-09T22:45:44.940Z,98826.84
2023-07-09T22:48:11.186Z,98827.91
2023-07-09T22:50:37.342Z,98827.91
2023-07-09T22:53:03.519Z,98828.72
2023-07-09T22:55:29.682Z,98818.16
2023-07-09T22:57:58.650Z,98814.63
2023-07-09T23:00:24.811Z,98817.34
2023-07-09T23:02:51.089Z,98814.63
2023-07-09T23:05:17.327Z,98811.91
2023-07-09T23:07:43.474Z,98827.34
2023-07-09T23:10:09.629Z,98818.38
2023-07-09T23:12:35.761Z,98814.88
2023-07-09T23:15:01.919Z,98821.09
2023-07-09T23:17:28.177Z,98823.00
2023-07-09T23:19:54.549Z,98820.28
2023-07-09T23:22:20.710Z,98824.91
2023-07-09T23:24:46.897Z,98820.53
2023-07-09T23:27:13.057Z,98838.44
2023-07-09T23:29:39.193Z,98841.41
2023-07-09T23:32:05.377Z,98838.69
2023-07-09T23:34:31.539Z,98838.69
2023-07-09T23:36:57.683Z,98818.91
2023-07-09T23:39:24.371Z,98840.59
2023-07-09T23:41:50.513Z,98832.47
2023-07-09T23:44:16.657Z,98836.22
2023-07-09T23:46:42.871Z,98840.81
2023-07-09T23:49:11.448Z,98842.50
2023-07-09T23:51:37.789Z,98840.03
2023-07-09T23:54:03.972Z,98840.03
2023-07-09T23:56:30.145Z,98840.03
2023-07-09T23:58:56.309Z,98831.06
